sensor_id;sensor_type;location;lat;lon;timestamp;temperature;humidity
9393;DHT22;4736;52.508;13.422;2023-02-15T00:02:53;3.50;73.70
9393;DHT22;4736;52.508;13.422;2023-02-15T00:05:57;3.30;73.80
9393;DHT22;4736;52.508;13.422;2023-02-15T00:09:01;3.30;73.90
9393;DHT22;4736;52.508;13.422;2023-02-15T00:12:09;3.30;73.90
9393;DHT22;4736;52.508;13.422;2023-02-15T00:15:13;3.30;74.10
9393;DHT22;4736;52.508;13.422;2023-02-15T00:18:16;3.20;74.20
9393;DHT22;4736;52.508;13.422;2023-02-15T00:21:20;3.20;74.30
9393;DHT22;4736;52.508;13.422;2023-02-15T00:24:23;3.10;74.20
9393;DHT22;4736;52.508;13.422;2023-02-15T00:27:28;3.10;74.20
9393;DHT22;4736;52.508;13.422;2023-02-15T00:30:34;3.10;74.20
9393;DHT22;4736;52.508;13.422;2023-02-15T00:33:38;3.10;74.20
9393;DHT22;4736;52.508;13.422;2023-02-15T00:36:42;3.10;74.30
9393;DHT22;4736;52.508;13.422;2023-02-15T00:39:45;3.00;74.60
9393;DHT22;4736;52.508;13.422;2023-02-15T00:42:50;3.00;74.70
9393;DHT22;4736;52.508;13.422;2023-02-15T00:45:54;2.90;74.80
9393;DHT22;4736;52.508;13.422;2023-02-15T00:48:57;2.90;74.80
9393;DHT22;4736;52.508;13.422;2023-02-15T00:52:01;2.90;75.00
9393;DHT22;4736;52.508;13.422;2023-02-15T00:55:05;2.80;74.90
9393;DHT22;4736;52.508;13.422;2023-02-15T00:58:11;2.80;75.00
9393;DHT22;4736;52.508;13.422;2023-02-15T01:01:16;2.70;74.90
9393;DHT22;4736;52.508;13.422;2023-02-15T01:04:20;2.70;75.00
9393;DHT22;4736;52.508;13.422;2023-02-15T01:07:23;2.70;75.00
9393;DHT22;4736;52.508;13.422;2023-02-15T01:10:27;2.60;75.00
9393;DHT22;4736;52.508;13.422;2023-02-15T01:13:32;2.60;75.10
9393;DHT22;4736;52.508;13.422;2023-02-15T01:16:36;2.50;75.10
9393;DHT22;4736;52.508;13.422;2023-02-15T01:19:39;2.50;75.10
9393;DHT22;4736;52.508;13.422;2023-02-15T01:22:42;2.50;75.20
9393;DHT22;4736;52.508;13.422;2023-02-15T01:25:46;2.50;75.20
9393;DHT22;4736;52.508;13.422;2023-02-15T01:28:51;2.40;75.20
9393;DHT22;4736;52.508;13.422;2023-02-15T01:31:54;2.40;75.30
9393;DHT22;4736;52.508;13.422;2023-02-15T01:34:58;2.40;75.40
9393;DHT22;4736;52.508;13.422;2023-02-15T01:38:01;2.30;75.50
9393;DHT22;4736;52.508;13.422;2023-02-15T01:41:04;2.30;75.50
9393;DHT22;4736;52.508;13.422;2023-02-15T01:44:49;2.30;75.50
9393;DHT22;4736;52.508;13.422;2023-02-15T01:47:58;2.30;75.60
9393;DHT22;4736;52.508;13.422;2023-02-15T01:51:04;2.30;75.70
9393;DHT22;4736;52.508;13.422;2023-02-15T01:54:15;2.20;75.80
9393;DHT22;4736;52.508;13.422;2023-02-15T01:57:22;2.20;75.80
9393;DHT22;4736;52.508;13.422;2023-02-15T02:00:28;2.20;75.90
9393;DHT22;4736;52.508;13.422;2023-02-15T02:03:42;2.20;76.00
9393;DHT22;4736;52.508;13.422;2023-02-15T02:06:49;2.20;76.10
9393;DHT22;4736;52.508;13.422;2023-02-15T02:09:53;2.10;76.00
9393;DHT22;4736;52.508;13.422;2023-02-15T02:12:59;2.10;76.10
9393;DHT22;4736;52.508;13.422;2023-02-15T02:16:11;2.10;76.10
9393;DHT22;4736;52.508;13.422;2023-02-15T02:19:56;2.10;76.20
9393;DHT22;4736;52.508;13.422;2023-02-15T02:23:11;2.10;76.30
9393;DHT22;4736;52.508;13.422;2023-02-15T02:26:49;2.10;76.30
9393;DHT22;4736;52.508;13.422;2023-02-15T02:30:34;2.00;76.40
9393;DHT22;4736;52.508;13.422;2023-02-15T02:33:52;2.00;76.40
9393;DHT22;4736;52.508;13.422;2023-02-15T02:37:06;2.00;76.50
9393;DHT22;4736;52.508;13.422;2023-02-15T02:40:20;1.90;76.60
9393;DHT22;4736;52.508;13.422;2023-02-15T02:43:31;1.90;76.80
9393;DHT22;4736;52.508;13.422;2023-02-15T02:46:40;1.90;76.80
9393;DHT22;4736;52.508;13.422;2023-02-15T02:49:52;1.90;76.80
9393;DHT22;4736;52.508;13.422;2023-02-15T02:53:02;1.80;76.80
9393;DHT22;4736;52.508;13.422;2023-02-15T02:56:09;1.80;77.00
9393;DHT22;4736;52.508;13.422;2023-02-15T02:59:19;1.80;77.00
9393;DHT22;4736;52.508;13.422;2023-02-15T03:02:29;1.80;77.10
9393;DHT22;4736;52.508;13.422;2023-02-15T03:05:40;1.70;77.10
9393;DHT22;4736;52.508;13.422;2023-02-15T03:08:48;1.70;77.10
9393;DHT22;4736;52.508;13.422;2023-02-15T03:11:56;1.70;77.10
9393;DHT22;4736;52.508;13.422;2023-02-15T03:15:03;1.70;77.10
9393;DHT22;4736;52.508;13.422;2023-02-15T03:18:09;1.60;77.10
9393;DHT22;4736;52.508;13.422;2023-02-15T03:21:31;1.60;77.20
9393;DHT22;4736;52.508;13.422;2023-02-15T03:24:45;1.60;77.40
9393;DHT22;4736;52.508;13.422;2023-02-15T03:27:55;1.50;77.30
9393;DHT22;4736;52.508;13.422;2023-02-15T03:31:08;1.50;77.30
9393;DHT22;4736;52.508;13.422;2023-02-15T03:34:15;1.50;77.30
9393;DHT22;4736;52.508;13.422;2023-02-15T03:37:26;1.50;77.20
9393;DHT22;4736;52.508;13.422;2023-02-15T03:40:36;1.40;77.30
9393;DHT22;4736;52.508;13.422;2023-02-15T03:44:00;1.40;77.40
9393;DHT22;4736;52.508;13.422;2023-02-15T03:47:10;1.40;77.40
9393;DHT22;4736;52.508;13.422;2023-02-15T03:50:18;1.40;77.30
9393;DHT22;4736;52.508;13.422;2023-02-15T03:53:47;1.40;77.30
9393;DHT22;4736;52.508;13.422;2023-02-15T03:56:54;1.20;77.30
9393;DHT22;4736;52.508;13.422;2023-02-15T04:00:14;1.20;77.40
9393;DHT22;4736;52.508;13.422;2023-02-15T04:03:39;1.20;77.40
9393;DHT22;4736;52.508;13.422;2023-02-15T04:06:44;1.10;77.40
9393;DHT22;4736;52.508;13.422;2023-02-15T04:09:49;1.10;77.40
9393;DHT22;4736;52.508;13.422;2023-02-15T04:13:10;1.10;77.50
9393;DHT22;4736;52.508;13.422;2023-02-15T04:16:16;1.00;77.30
9393;DHT22;4736;52.508;13.422;2023-02-15T04:19:19;1.00;77.30
9393;DHT22;4736;52.508;13.422;2023-02-15T04:22:40;0.90;77.30
9393;DHT22;4736;52.508;13.422;2023-02-15T04:26:04;0.80;77.40
9393;DHT22;4736;52.508;13.422;2023-02-15T04:29:08;0.80;77.30
9393;DHT22;4736;52.508;13.422;2023-02-15T04:32:14;0.80;77.10
9393;DHT22;4736;52.508;13.422;2023-02-15T04:35:18;0.70;77.20
9393;DHT22;4736;52.508;13.422;2023-02-15T04:38:21;0.70;77.10
9393;DHT22;4736;52.508;13.422;2023-02-15T04:41:26;0.50;77.20
9393;DHT22;4736;52.508;13.422;2023-02-15T04:44:30;0.40;77.50
9393;DHT22;4736;52.508;13.422;2023-02-15T04:47:33;0.30;77.60
9393;DHT22;4736;52.508;13.422;2023-02-15T04:50:39;0.20;77.70
9393;DHT22;4736;52.508;13.422;2023-02-15T04:53:42;0.20;77.70
9393;DHT22;4736;52.508;13.422;2023-02-15T04:56:47;0.30;77.70
9393;DHT22;4736;52.508;13.422;2023-02-15T04:59:51;0.30;77.50
9393;DHT22;4736;52.508;13.422;2023-02-15T05:02:54;0.20;77.60
9393;DHT22;4736;52.508;13.422;2023-02-15T05:06:04;0.20;77.50
9393;DHT22;4736;52.508;13.422;2023-02-15T05:09:11;0.20;77.50
9393;DHT22;4736;52.508;13.422;2023-02-15T05:12:16;0.20;77.50
9393;DHT22;4736;52.508;13.422;2023-02-15T05:15:22;0.20;77.40
9393;DHT22;4736;52.508;13.422;2023-02-15T05:18:27;0.10;77.50
9393;DHT22;4736;52.508;13.422;2023-02-15T05:21:33;0.10;77.60
9393;DHT22;4736;52.508;13.422;2023-02-15T05:24:46;0.10;77.70
9393;DHT22;4736;52.508;13.422;2023-02-15T05:28:28;0.00;77.70
9393;DHT22;4736;52.508;13.422;2023-02-15T05:31:53;0.00;77.90
9393;DHT22;4736;52.508;13.422;2023-02-15T05:35:00;0.00;78.20
9393;DHT22;4736;52.508;13.422;2023-02-15T05:41:49;0.00;78.40
9393;DHT22;4736;52.508;13.422;2023-02-15T05:45:14;0.00;78.40
9393;DHT22;4736;52.508;13.422;2023-02-15T05:48:21;0.00;78.30
9393;DHT22;4736;52.508;13.422;2023-02-15T05:51:27;0.00;78.20
9393;DHT22;4736;52.508;13.422;2023-02-15T05:54:32;0.00;78.30
9393;DHT22;4736;52.508;13.422;2023-02-15T05:57:36;0.00;78.20
9393;DHT22;4736;52.508;13.422;2023-02-15T06:00:40;0.10;78.30
9393;DHT22;4736;52.508;13.422;2023-02-15T06:03:43;0.20;77.70
9393;DHT22;4736;52.508;13.422;2023-02-15T06:06:47;0.00;78.10
9393;DHT22;4736;52.508;13.422;2023-02-15T06:09:50;0.00;78.10
9393;DHT22;4736;52.508;13.422;2023-02-15T06:12:53;0.00;78.40
9393;DHT22;4736;52.508;13.422;2023-02-15T06:15:58;0.00;78.50
9393;DHT22;4736;52.508;13.422;2023-02-15T06:19:03;0.00;78.40
9393;DHT22;4736;52.508;13.422;2023-02-15T06:22:06;0.00;78.40
9393;DHT22;4736;52.508;13.422;2023-02-15T06:25:09;0.00;78.70
9393;DHT22;4736;52.508;13.422;2023-02-15T06:28:13;0.00;78.60
9393;DHT22;4736;52.508;13.422;2023-02-15T06:31:17;0.00;78.50
9393;DHT22;4736;52.508;13.422;2023-02-15T06:34:21;0.00;78.50
9393;DHT22;4736;52.508;13.422;2023-02-15T06:37:24;-0.10;78.50
9393;DHT22;4736;52.508;13.422;2023-02-15T06:40:27;-0.10;78.60
9393;DHT22;4736;52.508;13.422;2023-02-15T06:43:30;-0.10;78.70
9393;DHT22;4736;52.508;13.422;2023-02-15T06:46:34;-0.10;79.00
9393;DHT22;4736;52.508;13.422;2023-02-15T06:49:38;-0.20;79.50
9393;DHT22;4736;52.508;13.422;2023-02-15T06:52:41;-0.30;79.90
9393;DHT22;4736;52.508;13.422;2023-02-15T06:55:44;-0.30;79.90
9393;DHT22;4736;52.508;13.422;2023-02-15T06:58:47;-0.20;79.80
9393;DHT22;4736;52.508;13.422;2023-02-15T07:01:54;-0.10;80.00
9393;DHT22;4736;52.508;13.422;2023-02-15T07:04:58;-0.10;80.00
9393;DHT22;4736;52.508;13.422;2023-02-15T07:08:01;-0.10;79.70
9393;DHT22;4736;52.508;13.422;2023-02-15T07:11:05;0.00;79.70
9393;DHT22;4736;52.508;13.422;2023-02-15T07:14:25;0.00;79.70
9393;DHT22;4736;52.508;13.422;2023-02-15T07:17:31;0.00;79.70
9393;DHT22;4736;52.508;13.422;2023-02-15T07:20:37;0.00;79.70
9393;DHT22;4736;52.508;13.422;2023-02-15T07:23:43;0.00;79.50
9393;DHT22;4736;52.508;13.422;2023-02-15T07:26:46;0.00;79.60
9393;DHT22;4736;52.508;13.422;2023-02-15T07:29:49;0.00;79.50
9393;DHT22;4736;52.508;13.422;2023-02-15T07:32:56;0.00;79.40
9393;DHT22;4736;52.508;13.422;2023-02-15T07:36:17;0.00;79.40
9393;DHT22;4736;52.508;13.422;2023-02-15T07:39:20;0.00;79.40
9393;DHT22;4736;52.508;13.422;2023-02-15T07:42:23;0.10;79.10
9393;DHT22;4736;52.508;13.422;2023-02-15T07:45:26;0.20;79.20
9393;DHT22;4736;52.508;13.422;2023-02-15T07:48:31;0.20;79.10
9393;DHT22;4736;52.508;13.422;2023-02-15T07:51:35;0.30;78.90
9393;DHT22;4736;52.508;13.422;2023-02-15T07:54:38;0.30;79.00
9393;DHT22;4736;52.508;13.422;2023-02-15T07:57:42;0.40;78.90
9393;DHT22;4736;52.508;13.422;2023-02-15T08:00:46;0.40;78.80
9393;DHT22;4736;52.508;13.422;2023-02-15T08:04:08;0.40;78.60
9393;DHT22;4736;52.508;13.422;2023-02-15T08:07:12;0.40;78.70
9393;DHT22;4736;52.508;13.422;2023-02-15T08:10:16;0.50;78.40
9393;DHT22;4736;52.508;13.422;2023-02-15T08:13:42;0.40;78.30
9393;DHT22;4736;52.508;13.422;2023-02-15T08:16:55;0.40;78.40
9393;DHT22;4736;52.508;13.422;2023-02-15T08:20:06;0.40;78.50
9393;DHT22;4736;52.508;13.422;2023-02-15T08:23:10;0.50;78.60
9393;DHT22;4736;52.508;13.422;2023-02-15T08:26:13;0.60;78.60
9393;DHT22;4736;52.508;13.422;2023-02-15T08:29:19;0.60;78.40
9393;DHT22;4736;52.508;13.422;2023-02-15T08:32:24;0.80;78.20
9393;DHT22;4736;52.508;13.422;2023-02-15T08:35:29;0.80;78.10
9393;DHT22;4736;52.508;13.422;2023-02-15T08:38:32;0.70;78.10
9393;DHT22;4736;52.508;13.422;2023-02-15T08:41:36;0.60;78.70
9393;DHT22;4736;52.508;13.422;2023-02-15T08:44:39;0.60;78.60
9393;DHT22;4736;52.508;13.422;2023-02-15T08:47:43;0.80;79.00
9393;DHT22;4736;52.508;13.422;2023-02-15T08:50:47;0.80;78.50
9393;DHT22;4736;52.508;13.422;2023-02-15T08:53:51;1.00;78.50
9393;DHT22;4736;52.508;13.422;2023-02-15T08:56:54;1.10;78.20
9393;DHT22;4736;52.508;13.422;2023-02-15T08:59:57;1.10;77.70
9393;DHT22;4736;52.508;13.422;2023-02-15T09:03:00;1.10;77.80
9393;DHT22;4736;52.508;13.422;2023-02-15T09:06:05;1.20;77.50
9393;DHT22;4736;52.508;13.422;2023-02-15T09:09:09;1.40;77.20
9393;DHT22;4736;52.508;13.422;2023-02-15T09:12:13;1.20;78.00
9393;DHT22;4736;52.508;13.422;2023-02-15T09:15:16;1.40;77.90
9393;DHT22;4736;52.508;13.422;2023-02-15T09:18:20;1.50;77.80
9393;DHT22;4736;52.508;13.422;2023-02-15T09:21:25;1.70;77.50
9393;DHT22;4736;52.508;13.422;2023-02-15T09:24:32;1.80;77.20
9393;DHT22;4736;52.508;13.422;2023-02-15T09:27:35;2.00;76.20
9393;DHT22;4736;52.508;13.422;2023-02-15T09:30:39;2.10;76.40
9393;DHT22;4736;52.508;13.422;2023-02-15T09:33:44;2.20;76.10
9393;DHT22;4736;52.508;13.422;2023-02-15T09:36:49;2.40;74.60
9393;DHT22;4736;52.508;13.422;2023-02-15T09:39:52;2.40;74.30
9393;DHT22;4736;52.508;13.422;2023-02-15T09:43:11;2.40;73.90
9393;DHT22;4736;52.508;13.422;2023-02-15T09:46:38;2.50;74.80
9393;DHT22;4736;52.508;13.422;2023-02-15T09:49:50;2.50;74.20
9393;DHT22;4736;52.508;13.422;2023-02-15T09:53:10;2.50;74.40
9393;DHT22;4736;52.508;13.422;2023-02-15T09:56:24;2.70;74.10
9393;DHT22;4736;52.508;13.422;2023-02-15T09:59:36;2.90;74.20
9393;DHT22;4736;52.508;13.422;2023-02-15T10:02:56;3.00;73.00
9393;DHT22;4736;52.508;13.422;2023-02-15T10:06:32;3.20;73.00
9393;DHT22;4736;52.508;13.422;2023-02-15T10:09:57;3.00;73.20
9393;DHT22;4736;52.508;13.422;2023-02-15T10:13:17;3.10;72.80
9393;DHT22;4736;52.508;13.422;2023-02-15T10:16:26;3.30;72.40
9393;DHT22;4736;52.508;13.422;2023-02-15T10:19:39;3.30;72.20
9393;DHT22;4736;52.508;13.422;2023-02-15T10:22:54;3.30;72.80
9393;DHT22;4736;52.508;13.422;2023-02-15T10:26:09;3.50;72.00
9393;DHT22;4736;52.508;13.422;2023-02-15T10:29:24;3.70;71.40
9393;DHT22;4736;52.508;13.422;2023-02-15T10:32:35;4.00;71.70
9393;DHT22;4736;52.508;13.422;2023-02-15T10:35:48;4.20;69.90
9393;DHT22;4736;52.508;13.422;2023-02-15T10:39:00;4.00;69.60
9393;DHT22;4736;52.508;13.422;2023-02-15T10:42:11;3.90;70.60
9393;DHT22;4736;52.508;13.422;2023-02-15T10:45:25;3.80;71.00
9393;DHT22;4736;52.508;13.422;2023-02-15T10:48:59;3.90;70.80
9393;DHT22;4736;52.508;13.422;2023-02-15T10:52:14;4.20;70.10
9393;DHT22;4736;52.508;13.422;2023-02-15T10:55:30;4.40;69.60
9393;DHT22;4736;52.508;13.422;2023-02-15T10:58:51;4.50;69.50
9393;DHT22;4736;52.508;13.422;2023-02-15T11:01:59;4.80;69.40
9393;DHT22;4736;52.508;13.422;2023-02-15T11:05:20;4.60;68.90
9393;DHT22;4736;52.508;13.422;2023-02-15T11:08:29;4.80;69.20
9393;DHT22;4736;52.508;13.422;2023-02-15T11:11:35;4.90;68.30
9393;DHT22;4736;52.508;13.422;2023-02-15T11:14:45;5.10;68.80
9393;DHT22;4736;52.508;13.422;2023-02-15T11:17:55;5.50;68.00
9393;DHT22;4736;52.508;13.422;2023-02-15T11:21:01;5.50;66.80
9393;DHT22;4736;52.508;13.422;2023-02-15T11:24:10;5.60;66.70
9393;DHT22;4736;52.508;13.422;2023-02-15T11:27:19;5.50;67.40
9393;DHT22;4736;52.508;13.422;2023-02-15T11:30:28;5.80;67.20
9393;DHT22;4736;52.508;13.422;2023-02-15T11:33:37;6.00;66.10
9393;DHT22;4736;52.508;13.422;2023-02-15T11:36:41;6.00;65.90
9393;DHT22;4736;52.508;13.422;2023-02-15T11:39:45;5.90;66.50
9393;DHT22;4736;52.508;13.422;2023-02-15T11:42:55;6.00;65.70
9393;DHT22;4736;52.508;13.422;2023-02-15T11:46:00;6.00;66.60
9393;DHT22;4736;52.508;13.422;2023-02-15T11:49:08;6.20;65.70
9393;DHT22;4736;52.508;13.422;2023-02-15T11:52:20;6.20;65.80
9393;DHT22;4736;52.508;13.422;2023-02-15T11:55:23;6.40;65.60
9393;DHT22;4736;52.508;13.422;2023-02-15T11:58:32;6.40;65.40
9393;DHT22;4736;52.508;13.422;2023-02-15T12:01:40;6.50;65.20
9393;DHT22;4736;52.508;13.422;2023-02-15T12:04:48;6.60;65.30
9393;DHT22;4736;52.508;13.422;2023-02-15T12:07:55;6.80;65.40
9393;DHT22;4736;52.508;13.422;2023-02-15T12:11:05;6.80;65.20
9393;DHT22;4736;52.508;13.422;2023-02-15T12:14:14;6.70;65.10
9393;DHT22;4736;52.508;13.422;2023-02-15T12:17:21;6.80;65.30
9393;DHT22;4736;52.508;13.422;2023-02-15T12:20:28;7.00;65.30
9393;DHT22;4736;52.508;13.422;2023-02-15T12:23:33;7.30;65.10
9393;DHT22;4736;52.508;13.422;2023-02-15T12:26:37;7.50;64.40
9393;DHT22;4736;52.508;13.422;2023-02-15T12:29:42;7.50;64.10
9393;DHT22;4736;52.508;13.422;2023-02-15T12:32:52;7.80;63.60
9393;DHT22;4736;52.508;13.422;2023-02-15T12:35:59;7.90;63.40
9393;DHT22;4736;52.508;13.422;2023-02-15T12:39:09;7.90;63.20
9393;DHT22;4736;52.508;13.422;2023-02-15T12:42:18;8.10;62.80
9393;DHT22;4736;52.508;13.422;2023-02-15T12:45:25;8.30;62.80
9393;DHT22;4736;52.508;13.422;2023-02-15T12:48:29;8.40;62.20
9393;DHT22;4736;52.508;13.422;2023-02-15T12:51:42;8.30;62.60
9393;DHT22;4736;52.508;13.422;2023-02-15T12:54:48;8.50;62.50
9393;DHT22;4736;52.508;13.422;2023-02-15T12:58:08;8.30;62.60
9393;DHT22;4736;52.508;13.422;2023-02-15T13:01:19;8.50;62.30
9393;DHT22;4736;52.508;13.422;2023-02-15T13:04:27;8.60;62.00
9393;DHT22;4736;52.508;13.422;2023-02-15T13:07:30;8.50;62.40
9393;DHT22;4736;52.508;13.422;2023-02-15T13:10:36;8.60;61.90
9393;DHT22;4736;52.508;13.422;2023-02-15T13:13:58;8.60;61.90
9393;DHT22;4736;52.508;13.422;2023-02-15T13:17:02;8.80;62.10
9393;DHT22;4736;52.508;13.422;2023-02-15T13:20:17;9.00;62.30
9393;DHT22;4736;52.508;13.422;2023-02-15T13:23:26;9.10;62.10
9393;DHT22;4736;52.508;13.422;2023-02-15T13:26:31;9.20;61.80
9393;DHT22;4736;52.508;13.422;2023-02-15T13:29:37;9.20;61.00
9393;DHT22;4736;52.508;13.422;2023-02-15T13:32:42;9.10;61.10
9393;DHT22;4736;52.508;13.422;2023-02-15T13:35:52;9.00;61.70
9393;DHT22;4736;52.508;13.422;2023-02-15T13:39:06;9.00;62.00
9393;DHT22;4736;52.508;13.422;2023-02-15T13:42:18;9.00;62.10
9393;DHT22;4736;52.508;13.422;2023-02-15T13:45:35;8.90;62.50
9393;DHT22;4736;52.508;13.422;2023-02-15T13:48:47;9.00;62.40
9393;DHT22;4736;52.508;13.422;2023-02-15T13:52:03;9.10;61.70
9393;DHT22;4736;52.508;13.422;2023-02-15T13:55:21;9.00;62.20
9393;DHT22;4736;52.508;13.422;2023-02-15T14:02:25;9.20;61.90
9393;DHT22;4736;52.508;13.422;2023-02-15T14:05:43;9.30;61.60
9393;DHT22;4736;52.508;13.422;2023-02-15T14:09:01;9.40;61.70
9393;DHT22;4736;52.508;13.422;2023-02-15T14:12:26;9.40;61.80
9393;DHT22;4736;52.508;13.422;2023-02-15T14:15:39;9.40;62.00
9393;DHT22;4736;52.508;13.422;2023-02-15T14:18:51;9.50;61.50
9393;DHT22;4736;52.508;13.422;2023-02-15T14:21:59;9.60;61.90
9393;DHT22;4736;52.508;13.422;2023-02-15T14:25:17;9.60;61.60
9393;DHT22;4736;52.508;13.422;2023-02-15T14:28:28;9.60;61.80
9393;DHT22;4736;52.508;13.422;2023-02-15T14:31:37;9.50;61.90
9393;DHT22;4736;52.508;13.422;2023-02-15T14:34:45;9.50;62.10
9393;DHT22;4736;52.508;13.422;2023-02-15T14:37:55;9.60;61.90
9393;DHT22;4736;52.508;13.422;2023-02-15T14:41:06;9.60;62.00
9393;DHT22;4736;52.508;13.422;2023-02-15T14:44:15;9.60;62.10
9393;DHT22;4736;52.508;13.422;2023-02-15T14:47:26;9.70;62.10
9393;DHT22;4736;52.508;13.422;2023-02-15T14:50:40;9.60;62.20
9393;DHT22;4736;52.508;13.422;2023-02-15T14:53:45;9.50;62.30
9393;DHT22;4736;52.508;13.422;2023-02-15T14:57:23;9.40;62.40
9393;DHT22;4736;52.508;13.422;2023-02-15T15:00:36;9.40;62.60
9393;DHT22;4736;52.508;13.422;2023-02-15T15:03:44;9.40;62.70
9393;DHT22;4736;52.508;13.422;2023-02-15T15:07:19;9.30;62.80
9393;DHT22;4736;52.508;13.422;2023-02-15T15:10:36;9.20;63.00
9393;DHT22;4736;52.508;13.422;2023-02-15T15:13:57;9.10;63.20
9393;DHT22;4736;52.508;13.422;2023-02-15T15:17:00;9.00;63.40
9393;DHT22;4736;52.508;13.422;2023-02-15T15:20:12;9.00;63.60
9393;DHT22;4736;52.508;13.422;2023-02-15T15:23:39;8.90;63.70
9393;DHT22;4736;52.508;13.422;2023-02-15T15:26:43;8.80;63.90
9393;DHT22;4736;52.508;13.422;2023-02-15T15:29:53;8.70;64.10
9393;DHT22;4736;52.508;13.422;2023-02-15T15:33:02;8.60;64.30
9393;DHT22;4736;52.508;13.422;2023-02-15T15:44:03;8.50;64.60
9393;DHT22;4736;52.508;13.422;2023-02-15T15:47:25;8.40;64.80
9393;DHT22;4736;52.508;13.422;2023-02-15T15:50:34;8.30;65.00
9393;DHT22;4736;52.508;13.422;2023-02-15T15:53:45;8.20;65.20
9393;DHT22;4736;52.508;13.422;2023-02-15T15:56:53;8.10;65.30
9393;DHT22;4736;52.508;13.422;2023-02-15T15:59:57;8.10;65.60
9393;DHT22;4736;52.508;13.422;2023-02-15T16:03:03;8.00;65.90
9393;DHT22;4736;52.508;13.422;2023-02-15T16:06:13;7.90;66.00
9393;DHT22;4736;52.508;13.422;2023-02-15T16:09:19;7.80;66.20
9393;DHT22;4736;52.508;13.422;2023-02-15T16:12:23;7.80;66.40
9393;DHT22;4736;52.508;13.422;2023-02-15T16:15:35;7.70;66.60
9393;DHT22;4736;52.508;13.422;2023-02-15T16:18:40;7.60;66.70
9393;DHT22;4736;52.508;13.422;2023-02-15T16:21:46;7.50;66.90
9393;DHT22;4736;52.508;13.422;2023-02-15T16:25:03;7.40;67.10
9393;DHT22;4736;52.508;13.422;2023-02-15T16:28:13;7.30;67.30
9393;DHT22;4736;52.508;13.422;2023-02-15T16:31:20;7.20;67.50
9393;DHT22;4736;52.508;13.422;2023-02-15T16:34:28;7.20;67.70
9393;DHT22;4736;52.508;13.422;2023-02-15T16:37:34;7.00;67.80
9393;DHT22;4736;52.508;13.422;2023-02-15T16:40:48;6.90;68.00
9393;DHT22;4736;52.508;13.422;2023-02-15T16:43:59;6.80;68.20
9393;DHT22;4736;52.508;13.422;2023-02-15T16:47:03;6.70;68.40
9393;DHT22;4736;52.508;13.422;2023-02-15T16:50:17;6.70;68.60
9393;DHT22;4736;52.508;13.422;2023-02-15T16:53:24;6.60;68.80
9393;DHT22;4736;52.508;13.422;2023-02-15T16:56:29;6.40;69.00
9393;DHT22;4736;52.508;13.422;2023-02-15T16:59:35;6.40;69.20
9393;DHT22;4736;52.508;13.422;2023-02-15T17:02:53;6.30;69.30
9393;DHT22;4736;52.508;13.422;2023-02-15T17:06:00;6.20;69.60
9393;DHT22;4736;52.508;13.422;2023-02-15T17:09:05;6.10;69.70
9393;DHT22;4736;52.508;13.422;2023-02-15T17:12:12;6.00;69.80
9393;DHT22;4736;52.508;13.422;2023-02-15T17:15:37;5.90;70.10
9393;DHT22;4736;52.508;13.422;2023-02-15T17:18:45;5.90;70.40
9393;DHT22;4736;52.508;13.422;2023-02-15T17:21:51;5.80;70.60
9393;DHT22;4736;52.508;13.422;2023-02-15T17:24:59;5.70;70.80
9393;DHT22;4736;52.508;13.422;2023-02-15T17:28:03;5.70;71.00
9393;DHT22;4736;52.508;13.422;2023-02-15T17:31:07;5.70;71.00
9393;DHT22;4736;52.508;13.422;2023-02-15T17:34:41;5.60;71.10
9393;DHT22;4736;52.508;13.422;2023-02-15T17:37:47;5.50;71.30
9393;DHT22;4736;52.508;13.422;2023-02-15T17:40:51;5.50;71.40
9393;DHT22;4736;52.508;13.422;2023-02-15T17:43:54;5.30;71.50
9393;DHT22;4736;52.508;13.422;2023-02-15T17:46:57;5.30;71.70
9393;DHT22;4736;52.508;13.422;2023-02-15T17:50:01;5.20;71.80
9393;DHT22;4736;52.508;13.422;2023-02-15T17:53:09;5.20;72.00
9393;DHT22;4736;52.508;13.422;2023-02-15T17:56:13;5.10;72.20
9393;DHT22;4736;52.508;13.422;2023-02-15T17:59:18;5.10;72.30
9393;DHT22;4736;52.508;13.422;2023-02-15T18:02:22;5.00;72.40
9393;DHT22;4736;52.508;13.422;2023-02-15T18:05:43;5.00;72.50
9393;DHT22;4736;52.508;13.422;2023-02-15T18:09:05;5.00;72.60
9393;DHT22;4736;52.508;13.422;2023-02-15T18:12:29;4.90;72.70
9393;DHT22;4736;52.508;13.422;2023-02-15T18:15:33;4.90;72.90
9393;DHT22;4736;52.508;13.422;2023-02-15T18:18:37;4.80;73.00
9393;DHT22;4736;52.508;13.422;2023-02-15T18:21:40;4.70;73.00
9393;DHT22;4736;52.508;13.422;2023-02-15T18:24:46;4.70;73.20
9393;DHT22;4736;52.508;13.422;2023-02-15T18:27:50;4.70;73.20
9393;DHT22;4736;52.508;13.422;2023-02-15T19:31:36;3.90;75.10
9393;DHT22;4736;52.508;13.422;2023-02-15T19:34:39;3.90;75.20
9393;DHT22;4736;52.508;13.422;2023-02-15T19:37:45;3.90;75.30
9393;DHT22;4736;52.508;13.422;2023-02-15T19:40:51;3.90;75.40
9393;DHT22;4736;52.508;13.422;2023-02-15T19:43:55;3.90;75.50
9393;DHT22;4736;52.508;13.422;2023-02-15T19:47:01;3.90;75.50
9393;DHT22;4736;52.508;13.422;2023-02-15T19:50:06;3.90;75.50
9393;DHT22;4736;52.508;13.422;2023-02-15T19:53:18;3.90;75.50
9393;DHT22;4736;52.508;13.422;2023-02-15T19:56:28;3.90;75.70
9393;DHT22;4736;52.508;13.422;2023-02-15T19:59:33;3.80;75.60
9393;DHT22;4736;52.508;13.422;2023-02-15T20:02:53;3.80;75.70
9393;DHT22;4736;52.508;13.422;2023-02-15T20:06:17;3.80;75.80
9393;DHT22;4736;52.508;13.422;2023-02-15T20:10:08;3.70;75.80
9393;DHT22;4736;52.508;13.422;2023-02-15T20:13:21;3.70;75.80
9393;DHT22;4736;52.508;13.422;2023-02-15T20:16:24;3.70;75.90
9393;DHT22;4736;52.508;13.422;2023-02-15T20:19:29;3.70;76.00
9393;DHT22;4736;52.508;13.422;2023-02-15T20:22:32;3.70;76.00
9393;DHT22;4736;52.508;13.422;2023-02-15T20:25:35;3.70;76.00
9393;DHT22;4736;52.508;13.422;2023-02-15T20:28:38;3.70;76.10
9393;DHT22;4736;52.508;13.422;2023-02-15T20:31:42;3.60;76.10
9393;DHT22;4736;52.508;13.422;2023-02-15T20:34:47;3.60;76.10
9393;DHT22;4736;52.508;13.422;2023-02-15T20:37:52;3.60;76.20
9393;DHT22;4736;52.508;13.422;2023-02-15T20:40:58;3.60;76.20
9393;DHT22;4736;52.508;13.422;2023-02-15T20:44:22;3.50;76.30
9393;DHT22;4736;52.508;13.422;2023-02-15T20:47:26;3.50;76.30
9393;DHT22;4736;52.508;13.422;2023-02-15T20:50:32;3.50;76.40
9393;DHT22;4736;52.508;13.422;2023-02-15T20:53:36;3.50;76.40
9393;DHT22;4736;52.508;13.422;2023-02-15T20:56:39;3.50;76.50
9393;DHT22;4736;52.508;13.422;2023-02-15T20:59:42;3.50;76.50
9393;DHT22;4736;52.508;13.422;2023-02-15T21:02:46;3.40;76.50
9393;DHT22;4736;52.508;13.422;2023-02-15T21:05:52;3.30;76.50
9393;DHT22;4736;52.508;13.422;2023-02-15T21:08:55;3.30;76.60
9393;DHT22;4736;52.508;13.422;2023-02-15T21:11:59;3.30;76.60
9393;DHT22;4736;52.508;13.422;2023-02-15T21:15:26;3.30;76.60
9393;DHT22;4736;52.508;13.422;2023-02-15T21:18:31;3.30;76.80
9393;DHT22;4736;52.508;13.422;2023-02-15T21:21:39;3.30;76.90
9393;DHT22;4736;52.508;13.422;2023-02-15T21:24:45;3.30;77.00
9393;DHT22;4736;52.508;13.422;2023-02-15T21:27:50;3.30;77.00
9393;DHT22;4736;52.508;13.422;2023-02-15T21:30:55;3.30;77.10
9393;DHT22;4736;52.508;13.422;2023-02-15T21:33:59;3.30;77.10
9393;DHT22;4736;52.508;13.422;2023-02-15T21:37:05;3.30;77.20
9393;DHT22;4736;52.508;13.422;2023-02-15T21:40:18;3.30;77.20
9393;DHT22;4736;52.508;13.422;2023-02-15T21:43:23;3.20;77.10
9393;DHT22;4736;52.508;13.422;2023-02-15T21:46:44;3.20;77.20
9393;DHT22;4736;52.508;13.422;2023-02-15T21:50:06;3.10;77.20
9393;DHT22;4736;52.508;13.422;2023-02-15T21:53:27;3.10;77.20